sensor_id;sensor_type;location;lat;lon;timestamp;P1;durP1;ratioP1;P2;durP2;ratioP2
1400;SDS011;46518;48.842;8.926;2023-07-30T00:00:17;3.20;;;2.60;;
1400;SDS011;46518;48.842;8.926;2023-07-30T00:02:47;4.28;;;2.95;;
1400;SDS011;46518;48.842;8.926;2023-07-30T00:05:15;2.22;;;2.03;;
1400;SDS011;46518;48.842;8.926;2023-07-30T00:07:43;2.90;;;2.70;;
1400;SDS011;46518;48.842;8.926;2023-07-30T00:10:12;2.47;;;2.30;;
1400;SDS011;46518;48.842;8.926;2023-07-30T00:12:40;1.75;;;1.65;;
1400;SDS011;46518;48.842;8.926;2023-07-30T00:15:08;3.20;;;1.83;;
1400;SDS011;46518;48.842;8.926;2023-07-30T00:17:37;1.65;;;1.55;;
1400;SDS011;46518;48.842;8.926;2023-07-30T00:20:07;2.17;;;1.98;;
1400;SDS011;46518;48.842;8.926;2023-07-30T00:22:36;2.00;;;1.90;;
1400;SDS011;46518;48.842;8.926;2023-07-30T00:25:05;3.80;;;1.85;;
1400;SDS011;46518;48.842;8.926;2023-07-30T00:27:35;1.65;;;1.55;;
1400;SDS011;46518;48.842;8.926;2023-07-30T00:30:03;1.70;;;1.60;;
1400;SDS011;46518;48.842;8.926;2023-07-30T00:32:32;1.73;;;1.60;;
1400;SDS011;46518;48.842;8.926;2023-07-30T00:35:00;1.80;;;1.40;;
1400;SDS011;46518;48.842;8.926;2023-07-30T00:37:31;1.48;;;1.35;;
1400;SDS011;46518;48.842;8.926;2023-07-30T00:39:59;1.52;;;1.42;;
1400;SDS011;46518;48.842;8.926;2023-07-30T00:42:28;2.10;;;1.80;;
1400;SDS011;46518;48.842;8.926;2023-07-30T00:44:56;1.50;;;1.40;;
1400;SDS011;46518;48.842;8.926;2023-07-30T00:47:24;1.60;;;1.50;;
1400;SDS011;46518;48.842;8.926;2023-07-30T00:49:54;5.35;;;1.73;;
1400;SDS011;46518;48.842;8.926;2023-07-30T00:52:22;1.50;;;1.40;;
1400;SDS011;46518;48.842;8.926;2023-07-30T00:54:52;2.28;;;1.45;;
1400;SDS011;46518;48.842;8.926;2023-07-30T00:57:24;2.35;;;1.45;;
1400;SDS011;46518;48.842;8.926;2023-07-30T00:59:53;1.65;;;1.30;;
1400;SDS011;46518;48.842;8.926;2023-07-30T01:02:22;1.60;;;1.45;;
1400;SDS011;46518;48.842;8.926;2023-07-30T01:04:50;1.70;;;1.35;;
1400;SDS011;46518;48.842;8.926;2023-07-30T01:07:18;1.35;;;1.20;;
1400;SDS011;46518;48.842;8.926;2023-07-30T01:09:47;1.85;;;1.02;;
1400;SDS011;46518;48.842;8.926;2023-07-30T01:12:16;1.08;;;1.08;;
1400;SDS011;46518;48.842;8.926;2023-07-30T01:14:45;2.78;;;1.40;;
1400;SDS011;46518;48.842;8.926;2023-07-30T01:17:14;1.67;;;1.42;;
1400;SDS011;46518;48.842;8.926;2023-07-30T01:19:43;1.30;;;1.20;;
1400;SDS011;46518;48.842;8.926;2023-07-30T01:22:13;2.28;;;1.40;;
1400;SDS011;46518;48.842;8.926;2023-07-30T01:24:41;1.65;;;1.45;;
1400;SDS011;46518;48.842;8.926;2023-07-30T01:27:11;1.00;;;1.00;;
1400;SDS011;46518;48.842;8.926;2023-07-30T01:29:48;1.80;;;1.40;;
1400;SDS011;46518;48.842;8.926;2023-07-30T01:32:24;1.40;;;1.30;;
1400;SDS011;46518;48.842;8.926;2023-07-30T01:34:54;2.05;;;1.95;;
1400;SDS011;46518;48.842;8.926;2023-07-30T01:37:26;2.22;;;1.30;;
1400;SDS011;46518;48.842;8.926;2023-07-30T01:39:56;2.15;;;1.25;;
1400;SDS011;46518;48.842;8.926;2023-07-30T01:42:27;1.60;;;1.50;;
1400;SDS011;46518;48.842;8.926;2023-07-30T01:44:57;1.45;;;1.27;;
1400;SDS011;46518;48.842;8.926;2023-07-30T01:47:25;1.38;;;1.27;;
1400;SDS011;46518;48.842;8.926;2023-07-30T01:49:54;1.20;;;1.10;;
1400;SDS011;46518;48.842;8.926;2023-07-30T01:52:22;1.50;;;1.40;;
1400;SDS011;46518;48.842;8.926;2023-07-30T01:54:52;1.13;;;1.00;;
1400;SDS011;46518;48.842;8.926;2023-07-30T01:57:23;1.33;;;1.23;;
1400;SDS011;46518;48.842;8.926;2023-07-30T01:59:51;2.75;;;1.27;;
1400;SDS011;46518;48.842;8.926;2023-07-30T02:02:19;1.35;;;1.25;;
1400;SDS011;46518;48.842;8.926;2023-07-30T02:04:47;1.30;;;1.20;;
1400;SDS011;46518;48.842;8.926;2023-07-30T02:07:16;1.30;;;1.20;;
1400;SDS011;46518;48.842;8.926;2023-07-30T02:09:44;1.45;;;1.35;;
1400;SDS011;46518;48.842;8.926;2023-07-30T02:12:13;1.00;;;0.90;;
1400;SDS011;46518;48.842;8.926;2023-07-30T02:14:42;1.20;;;1.10;;
1400;SDS011;46518;48.842;8.926;2023-07-30T02:17:10;1.48;;;1.38;;
1400;SDS011;46518;48.842;8.926;2023-07-30T02:19:38;1.40;;;1.30;;
1400;SDS011;46518;48.842;8.926;2023-07-30T02:22:06;1.45;;;1.33;;
1400;SDS011;46518;48.842;8.926;2023-07-30T02:24:34;1.63;;;1.30;;
1400;SDS011;46518;48.842;8.926;2023-07-30T02:27:03;3.22;;;1.70;;
1400;SDS011;46518;48.842;8.926;2023-07-30T02:29:33;3.83;;;1.27;;
1400;SDS011;46518;48.842;8.926;2023-07-30T02:32:01;1.40;;;1.30;;
1400;SDS011;46518;48.842;8.926;2023-07-30T02:34:29;1.25;;;1.15;;
1400;SDS011;46518;48.842;8.926;2023-07-30T02:36:57;3.88;;;1.13;;
1400;SDS011;46518;48.842;8.926;2023-07-30T02:39:26;2.03;;;1.20;;
1400;SDS011;46518;48.842;8.926;2023-07-30T02:41:54;2.22;;;2.03;;
1400;SDS011;46518;48.842;8.926;2023-07-30T02:44:23;1.40;;;1.30;;
1400;SDS011;46518;48.842;8.926;2023-07-30T02:46:52;1.52;;;1.42;;
1400;SDS011;46518;48.842;8.926;2023-07-30T02:49:20;1.70;;;1.60;;
1400;SDS011;46518;48.842;8.926;2023-07-30T02:51:48;2.08;;;1.88;;
1400;SDS011;46518;48.842;8.926;2023-07-30T02:54:17;2.60;;;2.00;;
1400;SDS011;46518;48.842;8.926;2023-07-30T02:56:47;1.85;;;1.75;;
1400;SDS011;46518;48.842;8.926;2023-07-30T02:59:15;1.92;;;1.75;;
1400;SDS011;46518;48.842;8.926;2023-07-30T03:01:44;1.83;;;1.73;;
1400;SDS011;46518;48.842;8.926;2023-07-30T03:04:13;1.45;;;1.35;;
1400;SDS011;46518;48.842;8.926;2023-07-30T03:06:41;4.15;;;1.85;;
1400;SDS011;46518;48.842;8.926;2023-07-30T03:09:10;1.55;;;1.45;;
1400;SDS011;46518;48.842;8.926;2023-07-30T03:11:38;1.80;;;1.70;;
1400;SDS011;46518;48.842;8.926;2023-07-30T03:14:06;1.50;;;1.40;;
1400;SDS011;46518;48.842;8.926;2023-07-30T03:16:34;1.52;;;1.42;;
1400;SDS011;46518;48.842;8.926;2023-07-30T03:19:02;1.30;;;1.20;;
1400;SDS011;46518;48.842;8.926;2023-07-30T03:21:32;1.60;;;1.33;;
1400;SDS011;46518;48.842;8.926;2023-07-30T03:24:00;1.73;;;1.30;;
1400;SDS011;46518;48.842;8.926;2023-07-30T03:26:28;2.65;;;1.40;;
1400;SDS011;46518;48.842;8.926;2023-07-30T03:28:56;1.88;;;1.77;;
1400;SDS011;46518;48.842;8.926;2023-07-30T03:31:24;1.73;;;1.30;;
1400;SDS011;46518;48.842;8.926;2023-07-30T03:33:55;2.53;;;1.90;;
1400;SDS011;46518;48.842;8.926;2023-07-30T03:36:23;1.50;;;1.40;;
1400;SDS011;46518;48.842;8.926;2023-07-30T03:38:52;3.88;;;1.48;;
1400;SDS011;46518;48.842;8.926;2023-07-30T03:41:20;2.38;;;1.80;;
1400;SDS011;46518;48.842;8.926;2023-07-30T03:43:49;1.80;;;1.65;;
1400;SDS011;46518;48.842;8.926;2023-07-30T03:46:17;2.60;;;1.77;;
1400;SDS011;46518;48.842;8.926;2023-07-30T03:48:46;2.47;;;2.20;;
1400;SDS011;46518;48.842;8.926;2023-07-30T03:51:15;8.55;;;3.17;;
1400;SDS011;46518;48.842;8.926;2023-07-30T03:53:43;2.20;;;1.83;;
1400;SDS011;46518;48.842;8.926;2023-07-30T03:56:12;4.28;;;2.63;;
1400;SDS011;46518;48.842;8.926;2023-07-30T03:58:41;2.10;;;2.00;;
1400;SDS011;46518;48.842;8.926;2023-07-30T04:01:09;2.50;;;2.28;;
1400;SDS011;46518;48.842;8.926;2023-07-30T04:03:37;2.47;;;2.17;;
1400;SDS011;46518;48.842;8.926;2023-07-30T04:06:06;1.90;;;1.75;;
1400;SDS011;46518;48.842;8.926;2023-07-30T04:08:34;3.10;;;1.55;;
1400;SDS011;46518;48.842;8.926;2023-07-30T04:11:03;1.80;;;1.70;;
1400;SDS011;46518;48.842;8.926;2023-07-30T04:13:35;5.72;;;1.92;;
1400;SDS011;46518;48.842;8.926;2023-07-30T04:16:06;2.65;;;2.45;;
1400;SDS011;46518;48.842;8.926;2023-07-30T04:18:35;2.13;;;1.92;;
1400;SDS011;46518;48.842;8.926;2023-07-30T04:21:03;1.80;;;1.70;;
1400;SDS011;46518;48.842;8.926;2023-07-30T04:23:31;2.55;;;2.20;;
1400;SDS011;46518;48.842;8.926;2023-07-30T04:25:59;2.20;;;2.00;;
1400;SDS011;46518;48.842;8.926;2023-07-30T04:28:27;2.20;;;2.00;;
1400;SDS011;46518;48.842;8.926;2023-07-30T04:30:57;2.10;;;1.60;;
1400;SDS011;46518;48.842;8.926;2023-07-30T04:33:25;2.03;;;1.92;;
1400;SDS011;46518;48.842;8.926;2023-07-30T04:35:54;2.40;;;2.30;;
1400;SDS011;46518;48.842;8.926;2023-07-30T04:38:22;2.17;;;2.00;;
1400;SDS011;46518;48.842;8.926;2023-07-30T04:40:51;2.95;;;2.65;;
1400;SDS011;46518;48.842;8.926;2023-07-30T04:43:19;2.38;;;1.73;;
1400;SDS011;46518;48.842;8.926;2023-07-30T04:45:52;2.10;;;1.80;;
1400;SDS011;46518;48.842;8.926;2023-07-30T04:48:22;1.98;;;1.83;;
1400;SDS011;46518;48.842;8.926;2023-07-30T04:50:51;2.30;;;2.10;;
1400;SDS011;46518;48.842;8.926;2023-07-30T04:53:19;3.30;;;2.10;;
1400;SDS011;46518;48.842;8.926;2023-07-30T04:55:47;4.85;;;1.75;;
1400;SDS011;46518;48.842;8.926;2023-07-30T04:58:17;1.88;;;1.77;;
1400;SDS011;46518;48.842;8.926;2023-07-30T05:00:45;7.03;;;2.00;;
1400;SDS011;46518;48.842;8.926;2023-07-30T05:03:13;2.13;;;1.80;;
1400;SDS011;46518;48.842;8.926;2023-07-30T05:05:43;2.35;;;1.45;;
1400;SDS011;46518;48.842;8.926;2023-07-30T05:08:11;1.75;;;1.65;;
1400;SDS011;46518;48.842;8.926;2023-07-30T05:10:39;1.80;;;1.70;;
1400;SDS011;46518;48.842;8.926;2023-07-30T05:13:07;1.83;;;1.50;;
1400;SDS011;46518;48.842;8.926;2023-07-30T05:15:36;2.72;;;1.52;;
1400;SDS011;46518;48.842;8.926;2023-07-30T05:18:04;2.22;;;1.65;;
1400;SDS011;46518;48.842;8.926;2023-07-30T05:20:32;1.25;;;1.15;;
1400;SDS011;46518;48.842;8.926;2023-07-30T05:23:01;1.58;;;1.30;;
1400;SDS011;46518;48.842;8.926;2023-07-30T05:25:30;1.35;;;1.25;;
1400;SDS011;46518;48.842;8.926;2023-07-30T05:27:58;1.45;;;1.30;;
1400;SDS011;46518;48.842;8.926;2023-07-30T05:30:26;1.25;;;1.15;;
1400;SDS011;46518;48.842;8.926;2023-07-30T05:32:54;1.60;;;1.02;;
1400;SDS011;46518;48.842;8.926;2023-07-30T05:35:22;2.20;;;1.33;;
1400;SDS011;46518;48.842;8.926;2023-07-30T05:37:51;1.10;;;1.10;;
1400;SDS011;46518;48.842;8.926;2023-07-30T05:40:20;1.00;;;1.00;;
1400;SDS011;46518;48.842;8.926;2023-07-30T05:42:49;0.80;;;0.80;;
1400;SDS011;46518;48.842;8.926;2023-07-30T05:45:17;2.40;;;1.63;;
1400;SDS011;46518;48.842;8.926;2023-07-30T05:47:46;1.02;;;0.80;;
1400;SDS011;46518;48.842;8.926;2023-07-30T05:50:14;1.83;;;1.20;;
1400;SDS011;46518;48.842;8.926;2023-07-30T05:52:42;1.00;;;0.95;;
1400;SDS011;46518;48.842;8.926;2023-07-30T05:55:10;1.40;;;1.30;;
1400;SDS011;46518;48.842;8.926;2023-07-30T05:57:40;1.42;;;1.23;;
1400;SDS011;46518;48.842;8.926;2023-07-30T06:00:08;1.35;;;1.20;;
1400;SDS011;46518;48.842;8.926;2023-07-30T06:02:37;1.40;;;1.23;;
1400;SDS011;46518;48.842;8.926;2023-07-30T06:05:05;1.05;;;1.00;;
1400;SDS011;46518;48.842;8.926;2023-07-30T06:07:34;1.58;;;1.35;;
1400;SDS011;46518;48.842;8.926;2023-07-30T06:10:02;2.15;;;2.05;;
1400;SDS011;46518;48.842;8.926;2023-07-30T06:12:31;1.90;;;1.45;;
1400;SDS011;46518;48.842;8.926;2023-07-30T06:15:01;1.63;;;1.52;;
1400;SDS011;46518;48.842;8.926;2023-07-30T06:17:30;1.10;;;1.10;;
1400;SDS011;46518;48.842;8.926;2023-07-30T06:20:00;1.50;;;1.40;;
1400;SDS011;46518;48.842;8.926;2023-07-30T06:22:29;1.20;;;1.20;;
1400;SDS011;46518;48.842;8.926;2023-07-30T06:24:57;1.17;;;1.08;;
1400;SDS011;46518;48.842;8.926;2023-07-30T06:27:25;1.00;;;1.00;;
1400;SDS011;46518;48.842;8.926;2023-07-30T06:29:53;1.90;;;1.45;;
1400;SDS011;46518;48.842;8.926;2023-07-30T06:32:23;1.50;;;1.40;;
1400;SDS011;46518;48.842;8.926;2023-07-30T06:34:51;1.50;;;1.15;;
1400;SDS011;46518;48.842;8.926;2023-07-30T06:37:20;1.58;;;1.35;;
1400;SDS011;46518;48.842;8.926;2023-07-30T06:39:48;1.88;;;1.77;;
1400;SDS011;46518;48.842;8.926;2023-07-30T06:42:16;1.85;;;1.75;;
1400;SDS011;46518;48.842;8.926;2023-07-30T06:44:44;2.50;;;2.30;;
1400;SDS011;46518;48.842;8.926;2023-07-30T06:47:12;2.53;;;2.40;;
1400;SDS011;46518;48.842;8.926;2023-07-30T06:49:42;2.20;;;2.10;;
1400;SDS011;46518;48.842;8.926;2023-07-30T06:52:10;2.45;;;2.25;;
1400;SDS011;46518;48.842;8.926;2023-07-30T06:54:38;1.65;;;1.55;;
1400;SDS011;46518;48.842;8.926;2023-07-30T06:57:06;1.98;;;1.88;;
1400;SDS011;46518;48.842;8.926;2023-07-30T06:59:34;2.28;;;2.15;;
1400;SDS011;46518;48.842;8.926;2023-07-30T07:02:03;1.70;;;1.60;;
1400;SDS011;46518;48.842;8.926;2023-07-30T07:04:32;1.70;;;1.60;;
1400;SDS011;46518;48.842;8.926;2023-07-30T07:07:02;1.98;;;1.88;;
1400;SDS011;46518;48.842;8.926;2023-07-30T07:09:30;2.38;;;2.00;;
1400;SDS011;46518;48.842;8.926;2023-07-30T07:11:58;4.22;;;2.10;;
1400;SDS011;46518;48.842;8.926;2023-07-30T07:14:27;3.67;;;3.08;;
1400;SDS011;46518;48.842;8.926;2023-07-30T07:16:55;3.15;;;2.30;;
1400;SDS011;46518;48.842;8.926;2023-07-30T07:19:23;2.35;;;2.17;;
1400;SDS011;46518;48.842;8.926;2023-07-30T07:21:52;3.50;;;2.70;;
1400;SDS011;46518;48.842;8.926;2023-07-30T07:24:21;2.00;;;1.90;;
1400;SDS011;46518;48.842;8.926;2023-07-30T07:26:49;2.15;;;1.95;;
1400;SDS011;46518;48.842;8.926;2023-07-30T07:29:18;1.60;;;1.50;;
1400;SDS011;46518;48.842;8.926;2023-07-30T07:31:47;2.00;;;1.80;;
1400;SDS011;46518;48.842;8.926;2023-07-30T07:34:16;2.40;;;2.20;;
1400;SDS011;46518;48.842;8.926;2023-07-30T07:36:44;2.03;;;1.92;;
1400;SDS011;46518;48.842;8.926;2023-07-30T07:39:17;2.20;;;2.03;;
1400;SDS011;46518;48.842;8.926;2023-07-30T07:41:48;2.58;;;2.38;;
1400;SDS011;46518;48.842;8.926;2023-07-30T07:44:17;2.15;;;1.98;;
1400;SDS011;46518;48.842;8.926;2023-07-30T07:46:47;5.00;;;2.15;;
1400;SDS011;46518;48.842;8.926;2023-07-30T07:49:17;2.60;;;2.00;;
1400;SDS011;46518;48.842;8.926;2023-07-30T07:51:47;2.20;;;2.00;;
1400;SDS011;46518;48.842;8.926;2023-07-30T07:54:16;2.50;;;2.30;;
1400;SDS011;46518;48.842;8.926;2023-07-30T07:56:45;3.05;;;2.83;;
1400;SDS011;46518;48.842;8.926;2023-07-30T07:59:16;3.35;;;2.80;;
1400;SDS011;46518;48.842;8.926;2023-07-30T08:01:44;2.55;;;2.35;;
1400;SDS011;46518;48.842;8.926;2023-07-30T08:04:12;2.95;;;2.75;;
1400;SDS011;46518;48.842;8.926;2023-07-30T08:06:40;3.10;;;2.80;;
1400;SDS011;46518;48.842;8.926;2023-07-30T08:09:08;2.67;;;2.47;;
1400;SDS011;46518;48.842;8.926;2023-07-30T08:11:37;2.33;;;2.13;;
1400;SDS011;46518;48.842;8.926;2023-07-30T08:14:05;3.65;;;2.80;;
1400;SDS011;46518;48.842;8.926;2023-07-30T08:16:35;2.63;;;2.42;;
1400;SDS011;46518;48.842;8.926;2023-07-30T08:19:03;3.25;;;3.05;;
1400;SDS011;46518;48.842;8.926;2023-07-30T08:21:31;2.88;;;2.67;;
1400;SDS011;46518;48.842;8.926;2023-07-30T08:23:59;2.95;;;2.75;;
1400;SDS011;46518;48.842;8.926;2023-07-30T08:26:28;3.78;;;3.47;;
1400;SDS011;46518;48.842;8.926;2023-07-30T08:28:56;2.78;;;2.50;;
1400;SDS011;46518;48.842;8.926;2023-07-30T08:31:24;2.88;;;2.63;;
1400;SDS011;46518;48.842;8.926;2023-07-30T08:33:54;3.15;;;2.90;;
1400;SDS011;46518;48.842;8.926;2023-07-30T08:36:22;3.17;;;2.97;;
1400;SDS011;46518;48.842;8.926;2023-07-30T08:38:51;3.00;;;2.80;;
1400;SDS011;46518;48.842;8.926;2023-07-30T08:41:19;5.57;;;2.80;;
1400;SDS011;46518;48.842;8.926;2023-07-30T08:43:47;4.13;;;3.40;;
1400;SDS011;46518;48.842;8.926;2023-07-30T08:46:16;2.95;;;2.75;;
1400;SDS011;46518;48.842;8.926;2023-07-30T08:48:44;2.80;;;2.60;;
1400;SDS011;46518;48.842;8.926;2023-07-30T08:51:17;3.33;;;3.08;;
1400;SDS011;46518;48.842;8.926;2023-07-30T08:53:46;3.17;;;2.90;;
1400;SDS011;46518;48.842;8.926;2023-07-30T08:56:15;3.67;;;2.83;;
1400;SDS011;46518;48.842;8.926;2023-07-30T08:58:44;3.58;;;3.05;;
1400;SDS011;46518;48.842;8.926;2023-07-30T09:01:13;2.90;;;2.70;;
1400;SDS011;46518;48.842;8.926;2023-07-30T09:03:44;3.45;;;3.15;;
1400;SDS011;46518;48.842;8.926;2023-07-30T09:06:12;3.60;;;3.30;;
1400;SDS011;46518;48.842;8.926;2023-07-30T09:08:42;3.05;;;2.75;;
1400;SDS011;46518;48.842;8.926;2023-07-30T09:11:10;3.20;;;3.00;;
1400;SDS011;46518;48.842;8.926;2023-07-30T09:13:39;3.45;;;3.00;;
1400;SDS011;46518;48.842;8.926;2023-07-30T09:16:09;3.33;;;3.05;;
1400;SDS011;46518;48.842;8.926;2023-07-30T09:18:39;3.17;;;2.97;;
1400;SDS011;46518;48.842;8.926;2023-07-30T09:21:09;3.40;;;2.67;;
1400;SDS011;46518;48.842;8.926;2023-07-30T09:23:39;4.85;;;3.35;;
1400;SDS011;46518;48.842;8.926;2023-07-30T09:26:09;2.97;;;2.78;;
1400;SDS011;46518;48.842;8.926;2023-07-30T09:28:40;4.53;;;3.00;;
1400;SDS011;46518;48.842;8.926;2023-07-30T09:31:09;3.03;;;2.78;;
1400;SDS011;46518;48.842;8.926;2023-07-30T09:33:49;3.53;;;3.22;;
1400;SDS011;46518;48.842;8.926;2023-07-30T09:36:18;3.53;;;3.08;;
1400;SDS011;46518;48.842;8.926;2023-07-30T09:38:47;3.95;;;3.53;;
1400;SDS011;46518;48.842;8.926;2023-07-30T09:41:17;4.43;;;3.67;;
1400;SDS011;46518;48.842;8.926;2023-07-30T09:43:46;3.85;;;3.17;;
1400;SDS011;46518;48.842;8.926;2023-07-30T09:46:15;3.67;;;2.55;;
1400;SDS011;46518;48.842;8.926;2023-07-30T09:48:43;10.07;;;3.67;;
1400;SDS011;46518;48.842;8.926;2023-07-30T09:51:11;3.05;;;2.35;;
1400;SDS011;46518;48.842;8.926;2023-07-30T09:53:39;4.40;;;3.35;;
1400;SDS011;46518;48.842;8.926;2023-07-30T09:56:08;3.58;;;3.17;;
1400;SDS011;46518;48.842;8.926;2023-07-30T09:58:38;3.58;;;3.35;;
1400;SDS011;46518;48.842;8.926;2023-07-30T10:01:09;3.90;;;3.50;;
1400;SDS011;46518;48.842;8.926;2023-07-30T10:03:37;3.80;;;3.40;;
1400;SDS011;46518;48.842;8.926;2023-07-30T10:06:06;3.35;;;3.03;;
1400;SDS011;46518;48.842;8.926;2023-07-30T10:08:35;3.45;;;3.15;;
1400;SDS011;46518;48.842;8.926;2023-07-30T10:11:07;3.35;;;3.05;;
1400;SDS011;46518;48.842;8.926;2023-07-30T10:13:38;3.35;;;3.05;;
1400;SDS011;46518;48.842;8.926;2023-07-30T10:16:09;4.55;;;3.10;;
1400;SDS011;46518;48.842;8.926;2023-07-30T10:18:38;3.13;;;2.92;;
1400;SDS011;46518;48.842;8.926;2023-07-30T10:21:07;4.20;;;3.28;;
1400;SDS011;46518;48.842;8.926;2023-07-30T10:23:40;4.43;;;3.85;;
1400;SDS011;46518;48.842;8.926;2023-07-30T10:26:14;3.90;;;3.30;;
1400;SDS011;46518;48.842;8.926;2023-07-30T10:28:43;4.72;;;2.75;;
1400;SDS011;46518;48.842;8.926;2023-07-30T10:31:11;3.92;;;3.63;;
1400;SDS011;46518;48.842;8.926;2023-07-30T10:33:44;4.18;;;3.20;;
1400;SDS011;46518;48.842;8.926;2023-07-30T10:36:13;4.07;;;3.72;;
1400;SDS011;46518;48.842;8.926;2023-07-30T10:38:41;6.22;;;3.08;;
1400;SDS011;46518;48.842;8.926;2023-07-30T10:41:11;5.93;;;3.40;;
1400;SDS011;46518;48.842;8.926;2023-07-30T10:43:46;4.35;;;3.45;;
1400;SDS011;46518;48.842;8.926;2023-07-30T10:46:15;4.00;;;3.08;;
1400;SDS011;46518;48.842;8.926;2023-07-30T10:48:47;4.10;;;3.40;;
1400;SDS011;46518;48.842;8.926;2023-07-30T10:51:16;5.82;;;4.15;;
1400;SDS011;46518;48.842;8.926;2023-07-30T10:53:46;2.85;;;2.65;;
1400;SDS011;46518;48.842;8.926;2023-07-30T10:56:16;3.05;;;2.85;;
1400;SDS011;46518;48.842;8.926;2023-07-30T10:58:51;4.70;;;4.10;;
1400;SDS011;46518;48.842;8.926;2023-07-30T11:01:20;3.30;;;3.00;;
1400;SDS011;46518;48.842;8.926;2023-07-30T11:03:51;5.80;;;2.85;;
1400;SDS011;46518;48.842;8.926;2023-07-30T11:06:23;2.90;;;2.60;;
1400;SDS011;46518;48.842;8.926;2023-07-30T11:08:52;3.88;;;3.47;;
1400;SDS011;46518;48.842;8.926;2023-07-30T11:11:20;3.13;;;2.92;;
1400;SDS011;46518;48.842;8.926;2023-07-30T11:13:53;5.53;;;3.75;;
1400;SDS011;46518;48.842;8.926;2023-07-30T11:16:23;3.80;;;3.50;;
1400;SDS011;46518;48.842;8.926;2023-07-30T11:18:51;4.00;;;3.50;;
1400;SDS011;46518;48.842;8.926;2023-07-30T11:21:20;3.38;;;3.10;;
1400;SDS011;46518;48.842;8.926;2023-07-30T11:23:55;3.50;;;2.97;;
1400;SDS011;46518;48.842;8.926;2023-07-30T11:26:23;4.07;;;3.60;;
1400;SDS011;46518;48.842;8.926;2023-07-30T11:28:53;2.88;;;2.67;;
1400;SDS011;46518;48.842;8.926;2023-07-30T11:31:25;2.75;;;2.50;;
1400;SDS011;46518;48.842;8.926;2023-07-30T11:33:55;3.00;;;2.80;;
1400;SDS011;46518;48.842;8.926;2023-07-30T11:36:29;2.85;;;2.65;;
1400;SDS011;46518;48.842;8.926;2023-07-30T11:39:00;3.35;;;3.03;;
1400;SDS011;46518;48.842;8.926;2023-07-30T11:41:32;3.53;;;2.80;;
1400;SDS011;46518;48.842;8.926;2023-07-30T11:44:12;4.65;;;2.80;;
1400;SDS011;46518;48.842;8.926;2023-07-30T11:46:57;3.08;;;2.80;;
1400;SDS011;46518;48.842;8.926;2023-07-30T11:49:25;5.43;;;3.20;;
1400;SDS011;46518;48.842;8.926;2023-07-30T11:52:03;3.35;;;3.00;;
1400;SDS011;46518;48.842;8.926;2023-07-30T11:54:32;3.20;;;2.90;;
1400;SDS011;46518;48.842;8.926;2023-07-30T11:57:00;4.25;;;3.30;;
1400;SDS011;46518;48.842;8.926;2023-07-30T11:59:29;2.50;;;2.30;;
1400;SDS011;46518;48.842;8.926;2023-07-30T12:01:59;3.30;;;3.00;;
1400;SDS011;46518;48.842;8.926;2023-07-30T12:04:30;3.42;;;2.85;;
1400;SDS011;46518;48.842;8.926;2023-07-30T12:06:58;3.22;;;2.95;;
1400;SDS011;46518;48.842;8.926;2023-07-30T12:09:28;3.90;;;2.72;;
1400;SDS011;46518;48.842;8.926;2023-07-30T12:12:05;3.25;;;2.95;;
1400;SDS011;46518;48.842;8.926;2023-07-30T12:14:43;2.65;;;2.45;;
1400;SDS011;46518;48.842;8.926;2023-07-30T12:17:19;3.50;;;3.30;;
1400;SDS011;46518;48.842;8.926;2023-07-30T12:19:47;2.88;;;2.67;;
1400;SDS011;46518;48.842;8.926;2023-07-30T12:22:16;4.57;;;3.10;;
1400;SDS011;46518;48.842;8.926;2023-07-30T12:24:44;2.60;;;2.35;;
1400;SDS011;46518;48.842;8.926;2023-07-30T12:27:12;2.90;;;2.70;;
1400;SDS011;46518;48.842;8.926;2023-07-30T12:29:40;2.90;;;2.60;;
1400;SDS011;46518;48.842;8.926;2023-07-30T12:32:10;2.65;;;2.45;;
1400;SDS011;46518;48.842;8.926;2023-07-30T12:34:38;3.10;;;2.58;;
1400;SDS011;46518;48.842;8.926;2023-07-30T12:37:07;3.38;;;2.63;;
1400;SDS011;46518;48.842;8.926;2023-07-30T12:39:37;3.78;;;2.65;;
1400;SDS011;46518;48.842;8.926;2023-07-30T12:42:05;4.07;;;2.88;;
1400;SDS011;46518;48.842;8.926;2023-07-30T12:44:33;2.85;;;2.50;;
1400;SDS011;46518;48.842;8.926;2023-07-30T12:47:02;3.17;;;2.30;;
1400;SDS011;46518;48.842;8.926;2023-07-30T12:49:31;2.75;;;2.47;;
1400;SDS011;46518;48.842;8.926;2023-07-30T12:51:59;2.65;;;2.35;;
1400;SDS011;46518;48.842;8.926;2023-07-30T12:54:27;3.40;;;2.45;;
1400;SDS011;46518;48.842;8.926;2023-07-30T12:56:55;2.78;;;2.28;;
1400;SDS011;46518;48.842;8.926;2023-07-30T12:59:24;3.05;;;2.65;;
1400;SDS011;46518;48.842;8.926;2023-07-30T13:01:52;2.40;;;2.20;;
1400;SDS011;46518;48.842;8.926;2023-07-30T13:04:20;2.53;;;2.03;;
1400;SDS011;46518;48.842;8.926;2023-07-30T13:06:50;2.10;;;1.70;;
1400;SDS011;46518;48.842;8.926;2023-07-30T13:09:18;2.70;;;2.33;;
1400;SDS011;46518;48.842;8.926;2023-07-30T13:11:46;3.38;;;2.42;;
1400;SDS011;46518;48.842;8.926;2023-07-30T13:14:14;4.37;;;2.40;;
1400;SDS011;46518;48.842;8.926;2023-07-30T13:16:42;3.13;;;2.83;;
1400;SDS011;46518;48.842;8.926;2023-07-30T13:19:11;3.90;;;2.87;;
1400;SDS011;46518;48.842;8.926;2023-07-30T13:21:39;6.55;;;2.80;;
1400;SDS011;46518;48.842;8.926;2023-07-30T13:24:09;3.00;;;2.70;;
1400;SDS011;46518;48.842;8.926;2023-07-30T13:26:37;4.70;;;3.00;;
1400;SDS011;46518;48.842;8.926;2023-07-30T13:29:05;8.60;;;3.10;;
1400;SDS011;46518;48.842;8.926;2023-07-30T13:31:33;3.33;;;2.22;;
1400;SDS011;46518;48.842;8.926;2023-07-30T13:34:02;4.30;;;2.60;;
1400;SDS011;46518;48.842;8.926;2023-07-30T13:36:30;3.35;;;2.25;;
1400;SDS011;46518;48.842;8.926;2023-07-30T13:38:58;2.45;;;2.22;;
1400;SDS011;46518;48.842;8.926;2023-07-30T13:41:28;3.30;;;3.00;;
1400;SDS011;46518;48.842;8.926;2023-07-30T13:43:56;4.60;;;2.58;;
1400;SDS011;46518;48.842;8.926;2023-07-30T13:46:24;4.53;;;2.30;;
1400;SDS011;46518;48.842;8.926;2023-07-30T13:48:52;5.70;;;2.90;;
1400;SDS011;46518;48.842;8.926;2023-07-30T13:51:20;4.10;;;2.17;;
1400;SDS011;46518;48.842;8.926;2023-07-30T13:53:48;4.70;;;2.50;;
1400;SDS011;46518;48.842;8.926;2023-07-30T13:56:16;4.33;;;2.60;;
1400;SDS011;46518;48.842;8.926;2023-07-30T13:58:46;4.47;;;2.67;;
1400;SDS011;46518;48.842;8.926;2023-07-30T14:01:14;4.57;;;2.80;;
1400;SDS011;46518;48.842;8.926;2023-07-30T14:03:43;4.30;;;2.80;;
1400;SDS011;46518;48.842;8.926;2023-07-30T14:06:11;11.43;;;3.30;;
1400;SDS011;46518;48.842;8.926;2023-07-30T14:08:39;2.20;;;1.97;;
1400;SDS011;46518;48.842;8.926;2023-07-30T14:11:07;5.10;;;2.20;;
1400;SDS011;46518;48.842;8.926;2023-07-30T14:13:36;5.10;;;2.58;;
1400;SDS011;46518;48.842;8.926;2023-07-30T14:16:05;3.67;;;2.00;;
1400;SDS011;46518;48.842;8.926;2023-07-30T14:18:34;5.60;;;2.40;;
1400;SDS011;46518;48.842;8.926;2023-07-30T14:21:02;5.57;;;2.20;;
1400;SDS011;46518;48.842;8.926;2023-07-30T14:23:30;2.95;;;2.60;;
1400;SDS011;46518;48.842;8.926;2023-07-30T14:25:58;2.77;;;2.57;;
1400;SDS011;46518;48.842;8.926;2023-07-30T14:28:26;3.47;;;2.40;;
1400;SDS011;46518;48.842;8.926;2023-07-30T14:30:55;3.73;;;2.60;;
1400;SDS011;46518;48.842;8.926;2023-07-30T14:33:24;2.20;;;2.03;;
1400;SDS011;46518;48.842;8.926;2023-07-30T14:35:53;3.80;;;1.97;;
1400;SDS011;46518;48.842;8.926;2023-07-30T14:38:21;3.45;;;2.15;;
1400;SDS011;46518;48.842;8.926;2023-07-30T14:40:49;3.90;;;2.33;;
1400;SDS011;46518;48.842;8.926;2023-07-30T14:43:17;4.77;;;2.63;;
1400;SDS011;46518;48.842;8.926;2023-07-30T14:45:45;2.93;;;1.87;;
1400;SDS011;46518;48.842;8.926;2023-07-30T14:48:14;2.20;;;1.60;;
1400;SDS011;46518;48.842;8.926;2023-07-30T14:50:43;3.50;;;1.93;;
1400;SDS011;46518;48.842;8.926;2023-07-30T14:53:11;1.63;;;1.40;;
1400;SDS011;46518;48.842;8.926;2023-07-30T14:55:39;2.80;;;2.33;;
1400;SDS011;46518;48.842;8.926;2023-07-30T14:58:07;4.20;;;2.20;;
1400;SDS011;46518;48.842;8.926;2023-07-30T15:00:36;2.83;;;2.33;;
1400;SDS011;46518;48.842;8.926;2023-07-30T15:03:05;2.72;;;1.90;;
1400;SDS011;46518;48.842;8.926;2023-07-30T15:05:33;3.70;;;2.77;;
1400;SDS011;46518;48.842;8.926;2023-07-30T15:08:03;4.00;;;1.90;;
1400;SDS011;46518;48.842;8.926;2023-07-30T15:10:32;3.13;;;2.10;;